sensor_id;sensor_type;location;lat;lon;timestamp;P1;durP1;ratioP1;P2;durP2;ratioP2
81934;SDS011;71405;47.674;-2.050;2024-01-25T00:01:11;12.85;;;4.60;;
81934;SDS011;71405;47.674;-2.050;2024-01-25T00:03:36;10.65;;;3.15;;
81934;SDS011;71405;47.674;-2.050;2024-01-25T00:06:02;10.23;;;3.22;;
81934;SDS011;71405;47.674;-2.050;2024-01-25T00:08:29;12.82;;;3.63;;
81934;SDS011;71405;47.674;-2.050;2024-01-25T00:10:54;9.85;;;3.60;;
81934;SDS011;71405;47.674;-2.050;2024-01-25T00:13:20;11.18;;;3.40;;
81934;SDS011;71405;47.674;-2.050;2024-01-25T00:15:46;10.02;;;3.67;;
81934;SDS011;71405;47.674;-2.050;2024-01-25T00:18:11;8.90;;;3.40;;
81934;SDS011;71405;47.674;-2.050;2024-01-25T00:20:37;9.40;;;3.38;;
81934;SDS011;71405;47.674;-2.050;2024-01-25T00:23:03;9.00;;;2.92;;
81934;SDS011;71405;47.674;-2.050;2024-01-25T00:25:28;12.82;;;3.35;;
81934;SDS011;71405;47.674;-2.050;2024-01-25T00:27:54;10.20;;;3.70;;
81934;SDS011;71405;47.674;-2.050;2024-01-25T00:30:20;10.38;;;3.53;;
81934;SDS011;71405;47.674;-2.050;2024-01-25T00:32:45;10.60;;;3.20;;
81934;SDS011;71405;47.674;-2.050;2024-01-25T00:35:11;11.15;;;3.33;;
81934;SDS011;71405;47.674;-2.050;2024-01-25T00:37:39;9.75;;;3.35;;
81934;SDS011;71405;47.674;-2.050;2024-01-25T00:40:06;12.02;;;3.00;;
81934;SDS011;71405;47.674;-2.050;2024-01-25T00:42:33;11.90;;;3.17;;
81934;SDS011;71405;47.674;-2.050;2024-01-25T00:45:08;6.93;;;2.78;;
81934;SDS011;71405;47.674;-2.050;2024-01-25T00:47:34;8.85;;;3.08;;
81934;SDS011;71405;47.674;-2.050;2024-01-25T00:50:00;9.13;;;3.05;;
81934;SDS011;71405;47.674;-2.050;2024-01-25T00:52:26;8.27;;;2.63;;
81934;SDS011;71405;47.674;-2.050;2024-01-25T00:54:52;8.38;;;2.88;;
81934;SDS011;71405;47.674;-2.050;2024-01-25T00:57:18;9.35;;;3.03;;
81934;SDS011;71405;47.674;-2.050;2024-01-25T00:59:44;9.05;;;3.10;;
81934;SDS011;71405;47.674;-2.050;2024-01-25T01:02:11;8.98;;;3.03;;
81934;SDS011;71405;47.674;-2.050;2024-01-25T01:04:38;10.02;;;2.65;;
81934;SDS011;71405;47.674;-2.050;2024-01-25T01:07:04;7.80;;;2.78;;
81934;SDS011;71405;47.674;-2.050;2024-01-25T01:09:30;9.23;;;2.83;;
81934;SDS011;71405;47.674;-2.050;2024-01-25T01:11:56;10.52;;;3.05;;
81934;SDS011;71405;47.674;-2.050;2024-01-25T01:14:22;11.50;;;3.22;;
81934;SDS011;71405;47.674;-2.050;2024-01-25T01:16:47;8.43;;;2.67;;
81934;SDS011;71405;47.674;-2.050;2024-01-25T01:19:15;7.40;;;2.72;;
81934;SDS011;71405;47.674;-2.050;2024-01-25T01:21:41;9.52;;;2.65;;
81934;SDS011;71405;47.674;-2.050;2024-01-25T01:24:09;7.63;;;2.90;;
81934;SDS011;71405;47.674;-2.050;2024-01-25T01:26:36;7.38;;;2.55;;
81934;SDS011;71405;47.674;-2.050;2024-01-25T01:29:02;9.85;;;2.75;;
81934;SDS011;71405;47.674;-2.050;2024-01-25T01:31:27;8.70;;;2.65;;
81934;SDS011;71405;47.674;-2.050;2024-01-25T01:33:53;8.93;;;2.95;;
81934;SDS011;71405;47.674;-2.050;2024-01-25T01:36:19;8.65;;;2.88;;
81934;SDS011;71405;47.674;-2.050;2024-01-25T01:38:45;8.05;;;2.47;;
81934;SDS011;71405;47.674;-2.050;2024-01-25T01:41:10;8.10;;;2.97;;
81934;SDS011;71405;47.674;-2.050;2024-01-25T01:43:38;7.78;;;2.33;;
81934;SDS011;71405;47.674;-2.050;2024-01-25T01:46:06;7.00;;;2.53;;
81934;SDS011;71405;47.674;-2.050;2024-01-25T01:48:38;9.63;;;2.50;;
81934;SDS011;71405;47.674;-2.050;2024-01-25T01:51:04;9.40;;;2.67;;
81934;SDS011;71405;47.674;-2.050;2024-01-25T01:53:30;8.20;;;2.45;;
81934;SDS011;71405;47.674;-2.050;2024-01-25T01:55:58;7.90;;;2.30;;
81934;SDS011;71405;47.674;-2.050;2024-01-25T01:58:24;9.68;;;2.83;;
81934;SDS011;71405;47.674;-2.050;2024-01-25T02:00:51;6.38;;;2.08;;
81934;SDS011;71405;47.674;-2.050;2024-01-25T02:03:18;6.63;;;2.33;;
81934;SDS011;71405;47.674;-2.050;2024-01-25T02:05:45;8.80;;;2.30;;
81934;SDS011;71405;47.674;-2.050;2024-01-25T02:08:11;7.35;;;2.20;;
81934;SDS011;71405;47.674;-2.050;2024-01-25T02:10:37;7.47;;;2.42;;
81934;SDS011;71405;47.674;-2.050;2024-01-25T02:13:03;8.52;;;2.25;;
81934;SDS011;71405;47.674;-2.050;2024-01-25T02:15:29;7.47;;;2.47;;
81934;SDS011;71405;47.674;-2.050;2024-01-25T02:17:55;8.15;;;2.40;;
81934;SDS011;71405;47.674;-2.050;2024-01-25T02:20:21;5.07;;;1.70;;
81934;SDS011;71405;47.674;-2.050;2024-01-25T02:22:47;6.25;;;2.45;;
81934;SDS011;71405;47.674;-2.050;2024-01-25T02:25:12;7.00;;;2.30;;
81934;SDS011;71405;47.674;-2.050;2024-01-25T02:27:38;7.90;;;2.58;;
81934;SDS011;71405;47.674;-2.050;2024-01-25T02:30:07;6.45;;;2.13;;
81934;SDS011;71405;47.674;-2.050;2024-01-25T02:32:33;7.40;;;2.15;;
81934;SDS011;71405;47.674;-2.050;2024-01-25T02:34:59;7.80;;;2.05;;
81934;SDS011;71405;47.674;-2.050;2024-01-25T02:37:25;7.15;;;2.20;;
81934;SDS011;71405;47.674;-2.050;2024-01-25T02:39:51;6.50;;;2.20;;
81934;SDS011;71405;47.674;-2.050;2024-01-25T02:42:18;5.90;;;2.25;;
81934;SDS011;71405;47.674;-2.050;2024-01-25T02:44:43;7.18;;;2.35;;
81934;SDS011;71405;47.674;-2.050;2024-01-25T02:47:11;6.95;;;2.22;;
81934;SDS011;71405;47.674;-2.050;2024-01-25T02:49:40;7.30;;;2.20;;
81934;SDS011;71405;47.674;-2.050;2024-01-25T02:52:05;6.70;;;2.22;;
81934;SDS011;71405;47.674;-2.050;2024-01-25T02:54:34;5.25;;;1.67;;
81934;SDS011;71405;47.674;-2.050;2024-01-25T02:57:01;7.38;;;2.13;;
81934;SDS011;71405;47.674;-2.050;2024-01-25T02:59:27;7.22;;;2.00;;
81934;SDS011;71405;47.674;-2.050;2024-01-25T03:01:53;8.23;;;2.10;;
81934;SDS011;71405;47.674;-2.050;2024-01-25T03:04:19;7.63;;;2.17;;
81934;SDS011;71405;47.674;-2.050;2024-01-25T03:06:45;6.63;;;2.03;;
81934;SDS011;71405;47.674;-2.050;2024-01-25T03:09:11;8.15;;;2.00;;
81934;SDS011;71405;47.674;-2.050;2024-01-25T03:11:36;5.80;;;1.80;;
81934;SDS011;71405;47.674;-2.050;2024-01-25T03:14:02;6.70;;;2.00;;
81934;SDS011;71405;47.674;-2.050;2024-01-25T03:16:28;5.72;;;1.90;;
81934;SDS011;71405;47.674;-2.050;2024-01-25T03:18:53;6.93;;;2.10;;
81934;SDS011;71405;47.674;-2.050;2024-01-25T03:21:19;7.20;;;2.10;;
81934;SDS011;71405;47.674;-2.050;2024-01-25T03:23:45;6.97;;;2.00;;
81934;SDS011;71405;47.674;-2.050;2024-01-25T03:26:10;6.97;;;1.80;;
81934;SDS011;71405;47.674;-2.050;2024-01-25T03:28:36;5.82;;;2.03;;
81934;SDS011;71405;47.674;-2.050;2024-01-25T03:31:03;5.60;;;1.80;;
81934;SDS011;71405;47.674;-2.050;2024-01-25T03:33:29;7.22;;;2.00;;
81934;SDS011;71405;47.674;-2.050;2024-01-25T03:35:57;7.40;;;2.00;;
81934;SDS011;71405;47.674;-2.050;2024-01-25T03:38:27;4.70;;;1.98;;
81934;SDS011;71405;47.674;-2.050;2024-01-25T03:40:53;6.47;;;1.98;;
81934;SDS011;71405;47.674;-2.050;2024-01-25T03:43:20;7.70;;;2.00;;
81934;SDS011;71405;47.674;-2.050;2024-01-25T03:45:46;5.72;;;1.60;;
81934;SDS011;71405;47.674;-2.050;2024-01-25T03:48:11;6.25;;;1.98;;
81934;SDS011;71405;47.674;-2.050;2024-01-25T03:50:37;5.47;;;1.67;;
81934;SDS011;71405;47.674;-2.050;2024-01-25T03:53:03;7.65;;;2.20;;
81934;SDS011;71405;47.674;-2.050;2024-01-25T03:55:28;5.57;;;1.70;;
81934;SDS011;71405;47.674;-2.050;2024-01-25T03:57:54;7.00;;;1.75;;
81934;SDS011;71405;47.674;-2.050;2024-01-25T04:00:20;7.53;;;2.03;;
81934;SDS011;71405;47.674;-2.050;2024-01-25T04:02:45;8.02;;;2.05;;
81934;SDS011;71405;47.674;-2.050;2024-01-25T04:05:11;5.80;;;1.80;;
81934;SDS011;71405;47.674;-2.050;2024-01-25T04:07:36;5.40;;;1.98;;
81934;SDS011;71405;47.674;-2.050;2024-01-25T04:10:02;6.00;;;1.88;;
81934;SDS011;71405;47.674;-2.050;2024-01-25T04:12:28;5.72;;;1.60;;
81934;SDS011;71405;47.674;-2.050;2024-01-25T04:14:54;4.07;;;1.70;;
81934;SDS011;71405;47.674;-2.050;2024-01-25T04:17:20;5.03;;;1.70;;
81934;SDS011;71405;47.674;-2.050;2024-01-25T04:19:45;6.78;;;2.05;;
81934;SDS011;71405;47.674;-2.050;2024-01-25T04:22:11;6.25;;;1.80;;
81934;SDS011;71405;47.674;-2.050;2024-01-25T04:24:37;4.00;;;1.63;;
81934;SDS011;71405;47.674;-2.050;2024-01-25T04:27:02;5.07;;;1.70;;
81934;SDS011;71405;47.674;-2.050;2024-01-25T04:29:28;5.70;;;1.55;;
81934;SDS011;71405;47.674;-2.050;2024-01-25T04:31:54;4.60;;;1.58;;
81934;SDS011;71405;47.674;-2.050;2024-01-25T04:34:19;4.93;;;1.83;;
81934;SDS011;71405;47.674;-2.050;2024-01-25T04:36:45;6.13;;;1.70;;
81934;SDS011;71405;47.674;-2.050;2024-01-25T04:39:11;6.03;;;1.67;;
81934;SDS011;71405;47.674;-2.050;2024-01-25T04:41:36;6.57;;;2.00;;
81934;SDS011;71405;47.674;-2.050;2024-01-25T04:44:02;4.80;;;1.70;;
81934;SDS011;71405;47.674;-2.050;2024-01-25T04:46:28;5.45;;;1.80;;
81934;SDS011;71405;47.674;-2.050;2024-01-25T04:48:54;6.38;;;1.90;;
81934;SDS011;71405;47.674;-2.050;2024-01-25T04:51:19;5.45;;;1.50;;
81934;SDS011;71405;47.674;-2.050;2024-01-25T04:53:45;5.40;;;1.63;;
81934;SDS011;71405;47.674;-2.050;2024-01-25T04:56:11;5.03;;;1.80;;
81934;SDS011;71405;47.674;-2.050;2024-01-25T04:58:37;4.55;;;1.58;;
81934;SDS011;71405;47.674;-2.050;2024-01-25T05:01:02;6.13;;;1.83;;
81934;SDS011;71405;47.674;-2.050;2024-01-25T05:03:29;4.93;;;1.65;;
81934;SDS011;71405;47.674;-2.050;2024-01-25T05:05:55;4.30;;;1.45;;
81934;SDS011;71405;47.674;-2.050;2024-01-25T05:08:21;6.50;;;2.05;;
81934;SDS011;71405;47.674;-2.050;2024-01-25T05:10:47;5.55;;;1.70;;
81934;SDS011;71405;47.674;-2.050;2024-01-25T05:13:12;4.40;;;1.70;;
81934;SDS011;71405;47.674;-2.050;2024-01-25T05:15:38;3.67;;;1.80;;
81934;SDS011;71405;47.674;-2.050;2024-01-25T05:18:04;5.95;;;1.60;;
81934;SDS011;71405;47.674;-2.050;2024-01-25T05:20:30;4.95;;;1.80;;
81934;SDS011;71405;47.674;-2.050;2024-01-25T05:23:01;5.13;;;1.90;;
81934;SDS011;71405;47.674;-2.050;2024-01-25T05:25:28;3.90;;;2.00;;
81934;SDS011;71405;47.674;-2.050;2024-01-25T05:27:55;4.60;;;1.70;;
81934;SDS011;71405;47.674;-2.050;2024-01-25T05:30:21;5.20;;;1.80;;
81934;SDS011;71405;47.674;-2.050;2024-01-25T05:32:47;6.00;;;1.63;;
81934;SDS011;71405;47.674;-2.050;2024-01-25T05:35:14;5.38;;;1.80;;
81934;SDS011;71405;47.674;-2.050;2024-01-25T05:37:40;3.35;;;1.60;;
81934;SDS011;71405;47.674;-2.050;2024-01-25T05:40:06;6.18;;;1.70;;
81934;SDS011;71405;47.674;-2.050;2024-01-25T05:42:32;4.22;;;1.65;;
81934;SDS011;71405;47.674;-2.050;2024-01-25T05:44:58;3.53;;;1.65;;
81934;SDS011;71405;47.674;-2.050;2024-01-25T05:47:24;4.32;;;1.52;;
81934;SDS011;71405;47.674;-2.050;2024-01-25T05:49:50;3.60;;;1.70;;
81934;SDS011;71405;47.674;-2.050;2024-01-25T05:52:16;5.88;;;1.80;;
81934;SDS011;71405;47.674;-2.050;2024-01-25T05:54:42;4.60;;;1.80;;
81934;SDS011;71405;47.674;-2.050;2024-01-25T05:57:08;3.90;;;1.60;;
81934;SDS011;71405;47.674;-2.050;2024-01-25T05:59:34;5.05;;;1.83;;
81934;SDS011;71405;47.674;-2.050;2024-01-25T06:02:00;3.28;;;1.73;;
81934;SDS011;71405;47.674;-2.050;2024-01-25T06:04:26;5.13;;;1.63;;
81934;SDS011;71405;47.674;-2.050;2024-01-25T06:06:51;4.75;;;1.80;;
81934;SDS011;71405;47.674;-2.050;2024-01-25T06:09:17;3.95;;;1.60;;
81934;SDS011;71405;47.674;-2.050;2024-01-25T06:11:43;4.82;;;1.70;;
81934;SDS011;71405;47.674;-2.050;2024-01-25T06:14:08;4.95;;;1.80;;
81934;SDS011;71405;47.674;-2.050;2024-01-25T06:16:34;3.35;;;1.33;;
81934;SDS011;71405;47.674;-2.050;2024-01-25T06:19:00;4.65;;;1.92;;
81934;SDS011;71405;47.674;-2.050;2024-01-25T06:21:27;6.53;;;1.77;;
81934;SDS011;71405;47.674;-2.050;2024-01-25T06:23:53;5.05;;;1.80;;
81934;SDS011;71405;47.674;-2.050;2024-01-25T06:26:18;10.30;;;2.20;;
81934;SDS011;71405;47.674;-2.050;2024-01-25T06:28:44;5.28;;;1.60;;
81934;SDS011;71405;47.674;-2.050;2024-01-25T06:31:10;4.18;;;1.48;;
81934;SDS011;71405;47.674;-2.050;2024-01-25T06:33:36;4.38;;;1.60;;
81934;SDS011;71405;47.674;-2.050;2024-01-25T06:36:01;3.92;;;1.63;;
81934;SDS011;71405;47.674;-2.050;2024-01-25T06:38:27;4.63;;;1.65;;
81934;SDS011;71405;47.674;-2.050;2024-01-25T06:40:53;5.90;;;1.52;;
81934;SDS011;71405;47.674;-2.050;2024-01-25T06:43:18;4.50;;;1.52;;
81934;SDS011;71405;47.674;-2.050;2024-01-25T06:45:44;5.60;;;1.98;;
81934;SDS011;71405;47.674;-2.050;2024-01-25T06:48:10;6.00;;;2.40;;
81934;SDS011;71405;47.674;-2.050;2024-01-25T06:50:36;5.45;;;1.63;;
81934;SDS011;71405;47.674;-2.050;2024-01-25T06:53:02;4.32;;;1.60;;
81934;SDS011;71405;47.674;-2.050;2024-01-25T06:55:30;5.65;;;2.17;;
81934;SDS011;71405;47.674;-2.050;2024-01-25T06:57:56;4.35;;;1.77;;
81934;SDS011;71405;47.674;-2.050;2024-01-25T07:00:22;5.93;;;1.95;;
81934;SDS011;71405;47.674;-2.050;2024-01-25T07:02:48;5.20;;;1.70;;
81934;SDS011;71405;47.674;-2.050;2024-01-25T07:05:13;5.35;;;2.17;;
81934;SDS011;71405;47.674;-2.050;2024-01-25T07:07:40;5.55;;;2.03;;
81934;SDS011;71405;47.674;-2.050;2024-01-25T07:10:06;3.80;;;1.70;;
81934;SDS011;71405;47.674;-2.050;2024-01-25T07:12:32;3.88;;;1.48;;
81934;SDS011;71405;47.674;-2.050;2024-01-25T07:14:58;5.32;;;1.80;;
81934;SDS011;71405;47.674;-2.050;2024-01-25T07:17:24;5.90;;;2.08;;
81934;SDS011;71405;47.674;-2.050;2024-01-25T07:19:49;6.00;;;2.20;;
81934;SDS011;71405;47.674;-2.050;2024-01-25T07:22:15;3.85;;;1.98;;
81934;SDS011;71405;47.674;-2.050;2024-01-25T07:24:43;5.45;;;1.90;;
81934;SDS011;71405;47.674;-2.050;2024-01-25T07:27:09;5.35;;;2.00;;
81934;SDS011;71405;47.674;-2.050;2024-01-25T07:29:35;3.83;;;1.77;;
81934;SDS011;71405;47.674;-2.050;2024-01-25T07:32:02;4.60;;;2.13;;
81934;SDS011;71405;47.674;-2.050;2024-01-25T07:34:28;4.97;;;2.00;;
81934;SDS011;71405;47.674;-2.050;2024-01-25T07:36:53;4.50;;;1.90;;
81934;SDS011;71405;47.674;-2.050;2024-01-25T07:39:19;4.43;;;1.52;;
81934;SDS011;71405;47.674;-2.050;2024-01-25T07:41:45;4.50;;;1.60;;
81934;SDS011;71405;47.674;-2.050;2024-01-25T07:44:12;5.38;;;1.83;;
81934;SDS011;71405;47.674;-2.050;2024-01-25T07:46:38;4.72;;;1.67;;
81934;SDS011;71405;47.674;-2.050;2024-01-25T07:49:04;3.17;;;1.80;;
81934;SDS011;71405;47.674;-2.050;2024-01-25T07:51:30;5.53;;;1.65;;
81934;SDS011;71405;47.674;-2.050;2024-01-25T07:53:55;4.68;;;1.60;;
81934;SDS011;71405;47.674;-2.050;2024-01-25T07:56:21;4.18;;;1.70;;
81934;SDS011;71405;47.674;-2.050;2024-01-25T07:58:50;3.78;;;1.67;;
81934;SDS011;71405;47.674;-2.050;2024-01-25T08:01:19;4.78;;;1.63;;
81934;SDS011;71405;47.674;-2.050;2024-01-25T08:03:46;4.55;;;1.77;;
81934;SDS011;71405;47.674;-2.050;2024-01-25T08:06:11;4.10;;;1.75;;
81934;SDS011;71405;47.674;-2.050;2024-01-25T08:08:37;4.75;;;1.75;;
81934;SDS011;71405;47.674;-2.050;2024-01-25T08:11:03;5.30;;;2.05;;
81934;SDS011;71405;47.674;-2.050;2024-01-25T08:13:33;4.43;;;1.63;;
81934;SDS011;71405;47.674;-2.050;2024-01-25T08:15:58;3.70;;;1.60;;
81934;SDS011;71405;47.674;-2.050;2024-01-25T08:18:24;4.28;;;1.88;;
81934;SDS011;71405;47.674;-2.050;2024-01-25T08:20:54;4.60;;;1.88;;
81934;SDS011;71405;47.674;-2.050;2024-01-25T08:23:20;4.82;;;1.80;;
81934;SDS011;71405;47.674;-2.050;2024-01-25T08:25:45;3.83;;;1.58;;
81934;SDS011;71405;47.674;-2.050;2024-01-25T08:28:11;8.82;;;1.90;;
81934;SDS011;71405;47.674;-2.050;2024-01-25T08:30:37;4.57;;;1.90;;
81934;SDS011;71405;47.674;-2.050;2024-01-25T08:33:02;4.72;;;1.60;;
81934;SDS011;71405;47.674;-2.050;2024-01-25T08:35:28;4.50;;;1.60;;
81934;SDS011;71405;47.674;-2.050;2024-01-25T08:37:55;3.88;;;1.65;;
81934;SDS011;71405;47.674;-2.050;2024-01-25T08:40:21;3.10;;;1.50;;
81934;SDS011;71405;47.674;-2.050;2024-01-25T08:42:47;7.45;;;2.30;;
81934;SDS011;71405;47.674;-2.050;2024-01-25T08:45:12;10.93;;;1.90;;
81934;SDS011;71405;47.674;-2.050;2024-01-25T08:47:38;7.15;;;1.98;;
81934;SDS011;71405;47.674;-2.050;2024-01-25T08:50:04;9.48;;;2.35;;
81934;SDS011;71405;47.674;-2.050;2024-01-25T08:52:35;6.63;;;2.25;;
81934;SDS011;71405;47.674;-2.050;2024-01-25T08:55:06;11.60;;;3.30;;
81934;SDS011;71405;47.674;-2.050;2024-01-25T08:57:32;8.20;;;1.95;;
81934;SDS011;71405;47.674;-2.050;2024-01-25T08:59:58;11.23;;;3.45;;
81934;SDS011;71405;47.674;-2.050;2024-01-25T09:02:27;5.72;;;2.15;;
81934;SDS011;71405;47.674;-2.050;2024-01-25T09:04:54;5.90;;;1.90;;
81934;SDS011;71405;47.674;-2.050;2024-01-25T09:07:21;6.03;;;2.45;;
81934;SDS011;71405;47.674;-2.050;2024-01-25T09:09:47;9.32;;;1.92;;
81934;SDS011;71405;47.674;-2.050;2024-01-25T09:12:13;4.88;;;2.25;;
81934;SDS011;71405;47.674;-2.050;2024-01-25T09:14:41;7.63;;;2.55;;
81934;SDS011;71405;47.674;-2.050;2024-01-25T09:17:07;6.90;;;2.63;;
81934;SDS011;71405;47.674;-2.050;2024-01-25T09:19:35;8.15;;;1.92;;
81934;SDS011;71405;47.674;-2.050;2024-01-25T09:22:02;9.13;;;2.13;;
81934;SDS011;71405;47.674;-2.050;2024-01-25T09:24:32;12.02;;;2.60;;
81934;SDS011;71405;47.674;-2.050;2024-01-25T09:29:29;10.23;;;2.50;;
81934;SDS011;71405;47.674;-2.050;2024-01-25T09:31:54;10.02;;;1.92;;
81934;SDS011;71405;47.674;-2.050;2024-01-25T09:34:20;8.18;;;1.52;;
81934;SDS011;71405;47.674;-2.050;2024-01-25T09:36:46;7.45;;;2.20;;
81934;SDS011;71405;47.674;-2.050;2024-01-25T09:39:12;7.97;;;2.13;;
81934;SDS011;71405;47.674;-2.050;2024-01-25T09:41:39;6.10;;;1.90;;
81934;SDS011;71405;47.674;-2.050;2024-01-25T09:44:06;14.35;;;4.72;;
81934;SDS011;71405;47.674;-2.050;2024-01-25T09:46:33;16.45;;;4.75;;
81934;SDS011;71405;47.674;-2.050;2024-01-25T09:49:00;7.10;;;2.08;;
81934;SDS011;71405;47.674;-2.050;2024-01-25T09:51:30;4.85;;;1.75;;
81934;SDS011;71405;47.674;-2.050;2024-01-25T09:54:02;9.30;;;2.35;;
81934;SDS011;71405;47.674;-2.050;2024-01-25T09:56:29;6.15;;;1.90;;
81934;SDS011;71405;47.674;-2.050;2024-01-25T09:58:57;6.10;;;2.05;;
81934;SDS011;71405;47.674;-2.050;2024-01-25T10:01:24;5.47;;;1.75;;
81934;SDS011;71405;47.674;-2.050;2024-01-25T10:03:49;15.07;;;3.88;;
81934;SDS011;71405;47.674;-2.050;2024-01-25T10:06:15;15.80;;;5.15;;
81934;SDS011;71405;47.674;-2.050;2024-01-25T10:08:42;10.55;;;2.80;;
81934;SDS011;71405;47.674;-2.050;2024-01-25T10:11:09;9.15;;;2.95;;
81934;SDS011;71405;47.674;-2.050;2024-01-25T10:13:48;5.90;;;2.40;;
81934;SDS011;71405;47.674;-2.050;2024-01-25T10:16:19;5.13;;;1.70;;
81934;SDS011;71405;47.674;-2.050;2024-01-25T10:18:48;5.80;;;2.20;;
81934;SDS011;71405;47.674;-2.050;2024-01-25T10:21:14;5.85;;;1.88;;
81934;SDS011;71405;47.674;-2.050;2024-01-25T10:23:40;4.68;;;1.92;;
81934;SDS011;71405;47.674;-2.050;2024-01-25T10:26:09;5.18;;;1.90;;
81934;SDS011;71405;47.674;-2.050;2024-01-25T10:28:35;6.28;;;1.88;;
81934;SDS011;71405;47.674;-2.050;2024-01-25T10:31:01;4.80;;;2.08;;
81934;SDS011;71405;47.674;-2.050;2024-01-25T10:33:29;4.55;;;1.50;;
81934;SDS011;71405;47.674;-2.050;2024-01-25T10:35:55;4.93;;;1.98;;
81934;SDS011;71405;47.674;-2.050;2024-01-25T10:38:32;5.97;;;2.08;;
81934;SDS011;71405;47.674;-2.050;2024-01-25T10:41:03;5.32;;;1.55;;
81934;SDS011;71405;47.674;-2.050;2024-01-25T10:43:29;2.70;;;1.42;;
81934;SDS011;71405;47.674;-2.050;2024-01-25T10:45:58;4.70;;;1.73;;
81934;SDS011;71405;47.674;-2.050;2024-01-25T10:48:25;5.75;;;1.75;;
81934;SDS011;71405;47.674;-2.050;2024-01-25T10:50:55;5.70;;;1.92;;
81934;SDS011;71405;47.674;-2.050;2024-01-25T10:53:22;8.00;;;2.17;;
81934;SDS011;71405;47.674;-2.050;2024-01-25T10:55:49;6.03;;;2.13;;
81934;SDS011;71405;47.674;-2.050;2024-01-25T10:58:15;6.22;;;1.58;;
81934;SDS011;71405;47.674;-2.050;2024-01-25T11:00:41;4.60;;;2.00;;
81934;SDS011;71405;47.674;-2.050;2024-01-25T11:03:15;4.28;;;1.80;;
81934;SDS011;71405;47.674;-2.050;2024-01-25T11:05:42;5.07;;;1.85;;
81934;SDS011;71405;47.674;-2.050;2024-01-25T11:08:16;4.65;;;1.77;;
81934;SDS011;71405;47.674;-2.050;2024-01-25T11:10:51;5.68;;;1.60;;
81934;SDS011;71405;47.674;-2.050;2024-01-25T11:13:23;5.72;;;1.70;;
81934;SDS011;71405;47.674;-2.050;2024-01-25T11:15:51;5.57;;;2.05;;
81934;SDS011;71405;47.674;-2.050;2024-01-25T11:18:17;4.45;;;1.70;;
81934;SDS011;71405;47.674;-2.050;2024-01-25T11:20:43;5.63;;;1.90;;
81934;SDS011;71405;47.674;-2.050;2024-01-25T11:23:13;5.10;;;1.98;;
81934;SDS011;71405;47.674;-2.050;2024-01-25T11:25:43;4.75;;;1.85;;
81934;SDS011;71405;47.674;-2.050;2024-01-25T11:28:10;3.95;;;1.60;;
81934;SDS011;71405;47.674;-2.050;2024-01-25T11:30:38;6.35;;;1.83;;
81934;SDS011;71405;47.674;-2.050;2024-01-25T11:33:06;4.15;;;1.60;;
81934;SDS011;71405;47.674;-2.050;2024-01-25T11:35:32;5.28;;;2.00;;
81934;SDS011;71405;47.674;-2.050;2024-01-25T11:37:58;6.45;;;2.17;;
81934;SDS011;71405;47.674;-2.050;2024-01-25T11:40:25;7.03;;;1.88;;
81934;SDS011;71405;47.674;-2.050;2024-01-25T11:42:52;12.02;;;2.35;;
81934;SDS011;71405;47.674;-2.050;2024-01-25T11:45:18;17.05;;;6.10;;
81934;SDS011;71405;47.674;-2.050;2024-01-25T11:47:44;11.35;;;3.78;;
81934;SDS011;71405;47.674;-2.050;2024-01-25T11:50:11;11.90;;;3.40;;
81934;SDS011;71405;47.674;-2.050;2024-01-25T11:52:37;15.30;;;4.15;;
81934;SDS011;71405;47.674;-2.050;2024-01-25T11:55:04;10.23;;;3.60;;
81934;SDS011;71405;47.674;-2.050;2024-01-25T11:57:32;16.83;;;4.88;;
81934;SDS011;71405;47.674;-2.050;2024-01-25T12:00:09;14.15;;;4.90;;
81934;SDS011;71405;47.674;-2.050;2024-01-25T12:02:38;17.33;;;6.72;;
81934;SDS011;71405;47.674;-2.050;2024-01-25T12:05:05;14.65;;;5.20;;
81934;SDS011;71405;47.674;-2.050;2024-01-25T12:07:31;14.40;;;4.72;;
81934;SDS011;71405;47.674;-2.050;2024-01-25T12:10:01;12.10;;;4.13;;
81934;SDS011;71405;47.674;-2.050;2024-01-25T12:12:29;11.70;;;3.92;;
81934;SDS011;71405;47.674;-2.050;2024-01-25T12:14:58;17.55;;;5.85;;
81934;SDS011;71405;47.674;-2.050;2024-01-25T12:17:27;11.85;;;4.65;;
81934;SDS011;71405;47.674;-2.050;2024-01-25T12:19:57;11.90;;;4.35;;
81934;SDS011;71405;47.674;-2.050;2024-01-25T12:22:23;10.93;;;4.40;;
81934;SDS011;71405;47.674;-2.050;2024-01-25T12:24:55;14.05;;;4.15;;
81934;SDS011;71405;47.674;-2.050;2024-01-25T12:27:21;13.70;;;4.75;;
81934;SDS011;71405;47.674;-2.050;2024-01-25T12:29:48;9.50;;;3.80;;
81934;SDS011;71405;47.674;-2.050;2024-01-25T12:32:18;14.80;;;3.95;;
81934;SDS011;71405;47.674;-2.050;2024-01-25T12:34:57;12.45;;;4.45;;
81934;SDS011;71405;47.674;-2.050;2024-01-25T12:37:25;15.63;;;6.15;;
81934;SDS011;71405;47.674;-2.050;2024-01-25T12:39:52;13.60;;;5.18;;
81934;SDS011;71405;47.674;-2.050;2024-01-25T12:42:19;12.43;;;4.68;;
81934;SDS011;71405;47.674;-2.050;2024-01-25T12:44:45;15.95;;;4.95;;
81934;SDS011;71405;47.674;-2.050;2024-01-25T12:47:12;10.07;;;4.45;;
81934;SDS011;71405;47.674;-2.050;2024-01-25T12:49:40;13.02;;;4.07;;
81934;SDS011;71405;47.674;-2.050;2024-01-25T12:52:10;19.85;;;4.35;;
81934;SDS011;71405;47.674;-2.050;2024-01-25T12:54:37;14.02;;;4.85;;
81934;SDS011;71405;47.674;-2.050;2024-01-25T12:57:04;11.00;;;3.63;;
81934;SDS011;71405;47.674;-2.050;2024-01-25T12:59:30;17.63;;;5.07;;
81934;SDS011;71405;47.674;-2.050;2024-01-25T13:01:59;16.08;;;4.53;;
81934;SDS011;71405;47.674;-2.050;2024-01-25T13:04:25;19.02;;;4.60;;
81934;SDS011;71405;47.674;-2.050;2024-01-25T13:06:52;19.65;;;5.25;;
81934;SDS011;71405;47.674;-2.050;2024-01-25T13:09:21;14.65;;;5.40;;
81934;SDS011;71405;47.674;-2.050;2024-01-25T13:11:48;14.35;;;4.90;;
81934;SDS011;71405;47.674;-2.050;2024-01-25T13:14:13;13.55;;;4.53;;
81934;SDS011;71405;47.674;-2.050;2024-01-25T13:16:39;13.45;;;3.97;;
81934;SDS011;71405;47.674;-2.050;2024-01-25T13:19:05;14.18;;;3.75;;
81934;SDS011;71405;47.674;-2.050;2024-01-25T13:21:31;14.57;;;4.40;;
81934;SDS011;71405;47.674;-2.050;2024-01-25T13:23:58;13.68;;;3.90;;
81934;SDS011;71405;47.674;-2.050;2024-01-25T13:26:24;13.13;;;3.53;;
81934;SDS011;71405;47.674;-2.050;2024-01-25T13:28:50;13.73;;;4.10;;
81934;SDS011;71405;47.674;-2.050;2024-01-25T13:31:16;11.32;;;4.00;;
81934;SDS011;71405;47.674;-2.050;2024-01-25T13:33:41;11.32;;;4.18;;
81934;SDS011;71405;47.674;-2.050;2024-01-25T13:36:07;12.98;;;4.10;;
81934;SDS011;71405;47.674;-2.050;2024-01-25T13:38:35;11.65;;;4.25;;
81934;SDS011;71405;47.674;-2.050;2024-01-25T13:41:01;12.82;;;4.55;;
81934;SDS011;71405;47.674;-2.050;2024-01-25T13:43:27;12.38;;;4.57;;
81934;SDS011;71405;47.674;-2.050;2024-01-25T13:45:53;13.38;;;4.07;;
81934;SDS011;71405;47.674;-2.050;2024-01-25T13:48:20;15.65;;;5.18;;
81934;SDS011;71405;47.674;-2.050;2024-01-25T13:50:46;13.23;;;4.93;;
81934;SDS011;71405;47.674;-2.050;2024-01-25T13:53:11;15.95;;;4.97;;
81934;SDS011;71405;47.674;-2.050;2024-01-25T13:55:37;11.73;;;5.07;;
81934;SDS011;71405;47.674;-2.050;2024-01-25T13:58:03;13.95;;;5.88;;
81934;SDS011;71405;47.674;-2.050;2024-01-25T14:00:28;10.80;;;5.07;;
81934;SDS011;71405;47.674;-2.050;2024-01-25T14:02:54;17.67;;;5.53;;
81934;SDS011;71405;47.674;-2.050;2024-01-25T14:05:20;12.43;;;5.43;;
81934;SDS011;71405;47.674;-2.050;2024-01-25T14:07:45;11.50;;;5.10;;
81934;SDS011;71405;47.674;-2.050;2024-01-25T14:10:11;15.70;;;5.65;;
81934;SDS011;71405;47.674;-2.050;2024-01-25T14:12:37;29.52;;;6.30;;
81934;SDS011;71405;47.674;-2.050;2024-01-25T14:15:03;15.45;;;6.03;;
81934;SDS011;71405;47.674;-2.050;2024-01-25T14:17:29;14.60;;;5.88;;
81934;SDS011;71405;47.674;-2.050;2024-01-25T14:19:55;12.32;;;5.38;;
81934;SDS011;71405;47.674;-2.050;2024-01-25T14:22:20;12.25;;;5.00;;
81934;SDS011;71405;47.674;-2.050;2024-01-25T14:24:46;14.57;;;4.93;;
81934;SDS011;71405;47.674;-2.050;2024-01-25T14:27:12;13.45;;;4.90;;
81934;SDS011;71405;47.674;-2.050;2024-01-25T14:29:38;12.68;;;5.22;;